Time;durP1;ratioP1;P1;durP2;ratioP2;P2;SDS_P1;SDS_P2;PMS_P1;PMS_P2;Temp;Humidity;BMP_temperature;BMP_pressure;BME280_temperature;BME280_humidity;BME280_pressure;Samples;Min_cycle;Max_cycle;Signal;HPM_P1;HPM_P2
2022/02/02 00:00:32;;;;;;;2.15;1.60;;;6.70;69.90;;;;;;5075052;28;20112;-74
2022/02/02 00:03:05;;;;;;;2.10;1.75;;;6.80;70.00;;;;;;5074747;28;20028;-74
2022/02/02 00:13:03;;;;;;;2.00;1.70;;;6.80;69.90;;;;;;5074674;28;20032;-74
2022/02/02 00:20:50;;;;;;;3.80;1.88;;;6.90;70.30;;;;;;5074625;28;20115;-74
2022/02/02 00:23:20;;;;;;;3.38;2.13;;;6.90;71.10;;;;;;5074582;28;20024;-73
2022/02/02 00:25:55;;;;;;;4.07;2.90;;;7.00;70.40;;;;;;5074486;28;20039;-74
2022/02/02 00:28:25;;;;;;;2.75;2.30;;;7.00;70.40;;;;;;5074764;28;20063;-73
2022/02/02 00:30:52;;;;;;;2.05;1.85;;;7.00;70.40;;;;;;5073058;28;20024;-74
2022/02/02 00:33:28;;;;;;;2.55;2.00;;;7.00;70.40;;;;;;5072719;28;20045;-74
2022/02/02 00:36:04;;;;;;;1.80;1.52;;;7.10;70.40;;;;;;5074344;28;20040;-74
2022/02/02 00:38:29;;;;;;;3.40;1.80;;;7.10;70.40;;;;;;5074339;28;20029;-74
2022/02/02 00:40:55;;;;;;;2.33;1.80;;;7.10;70.30;;;;;;5073840;28;20055;-74
2022/02/02 00:43:21;;;;;;;2.00;1.50;;;7.10;70.30;;;;;;5074197;28;20051;-74
2022/02/02 00:45:48;;;;;;;1.80;1.60;;;7.10;70.30;;;;;;5074059;28;20052;-74
2022/02/02 00:48:16;;;;;;;1.88;1.63;;;7.20;70.30;;;;;;5072765;28;20074;-74
2022/02/02 00:50:42;;;;;;;1.63;1.48;;;7.10;70.20;;;;;;5073729;28;20388;-74
2022/02/02 00:53:10;;;;;;;2.85;1.88;;;7.10;70.20;;;;;;5073653;28;20499;-74
2022/02/02 00:55:36;;;;;;;2.22;1.42;;;7.20;70.20;;;;;;5081599;28;20374;-74
2022/02/02 00:58:03;;;;;;;2.72;1.20;;;7.10;70.00;;;;;;5093967;28;20023;-74
2022/02/02 01:00:29;;;;;;;1.70;1.60;;;7.20;70.00;;;;;;5083364;28;20048;-74
2022/02/02 01:02:55;;;;;;;3.25;1.65;;;7.10;69.80;;;;;;5073563;28;20141;-74
2022/02/02 01:05:21;;;;;;;1.55;1.40;;;7.10;69.80;;;;;;5073630;28;20475;-74
2022/02/02 01:08:21;;;;;;;3.35;1.40;;;7.20;69.90;;;;;;5073663;28;20028;-74
2022/02/02 01:10:44;;;;;;;2.60;1.58;;;7.20;70.00;;;;;;5071791;28;20122;-74
2022/02/02 01:18:32;;;;;;;1.63;1.52;;;7.20;70.00;;;;;;5093826;28;20069;-74
2022/02/02 01:21:03;;;;;;;2.20;1.55;;;7.20;70.20;;;;;;5093736;28;20375;-74
2022/02/02 01:28:46;;;;;;;2.00;1.70;;;7.20;69.90;;;;;;5093713;28;20379;-74
2022/02/02 01:31:15;;;;;;;1.65;1.50;;;7.20;69.80;;;;;;5075412;28;20032;-74
2022/02/02 01:33:41;;;;;;;1.48;1.17;;;7.20;69.80;;;;;;5093514;28;20097;-74
2022/02/02 01:36:08;;;;;;;2.80;1.48;;;7.20;69.90;;;;;;5093541;28;20058;-74
2022/02/02 01:38:35;;;;;;;2.85;1.60;;;7.20;69.90;;;;;;5075454;28;20462;-74
2022/02/02 01:41:15;;;;;;;1.15;1.02;;;7.20;70.10;;;;;;5075285;28;20395;-73
2022/02/02 01:43:48;;;;;;;2.78;1.40;;;7.30;70.20;;;;;;5093236;28;20020;-74
2022/02/02 01:46:18;;;;;;;1.95;1.25;;;7.30;71.10;;;;;;5093458;28;20028;-73
2022/02/02 01:48:57;;;;;;;1.25;1.15;;;7.30;70.40;;;;;;5071519;28;20119;-73
2022/02/02 01:56:18;;;;;;;1.15;0.80;;;7.40;70.70;;;;;;5093338;28;20082;-73
2022/02/02 01:59:05;;;;;;;1.67;0.95;;;7.50;70.80;;;;;;5075161;28;20464;-73
2022/02/02 02:01:31;;;;;;;1.48;1.00;;;7.50;70.80;;;;;;5075109;28;20032;-73
2022/02/02 02:03:58;;;;;;;1.52;1.10;;;7.50;70.80;;;;;;5075312;28;20028;-73
2022/02/02 02:06:25;;;;;;;3.17;1.00;;;7.60;70.90;;;;;;5093089;28;20032;-74
2022/02/02 02:08:51;;;;;;;1.60;1.00;;;7.60;70.90;;;;;;5093113;28;20028;-74
2022/02/02 02:11:19;;;;;;;3.47;1.38;;;7.70;71.00;;;;;;5092826;28;20089;-74
2022/02/02 02:14:31;;;;;;;2.78;1.25;;;7.70;70.90;;;;;;5093068;28;20103;-74
2022/02/02 02:16:41;;;;;;;2.88;1.45;;;7.70;70.90;;;;;;5092882;28;20455;-73
2022/02/02 02:19:07;;;;;;;4.53;1.73;;;7.80;70.80;;;;;;5093052;28;20039;-74
2022/02/02 02:21:32;;;;;;;2.15;1.45;;;7.80;70.80;;;;;;5092900;28;20124;-73
2022/02/02 02:24:00;;;;;;;4.13;1.80;;;7.80;70.80;;;;;;5092950;28;20417;-73
2022/02/02 02:26:28;;;;;;;2.33;1.33;;;7.90;70.80;;;;;;5074850;28;20379;-73
2022/02/02 02:55:53;;;;;;;2.90;1.27;;;8.20;70.20;;;;;;5096514;28;20503;-73
2022/02/02 02:58:41;;;;;;;2.90;1.40;;;8.20;70.20;;;;;;5096690;28;20043;-73
2022/02/02 03:01:18;;;;;;;2.42;1.50;;;8.20;70.20;;;;;;5096394;28;20028;-73
2022/02/02 03:58:35;;;;;;;4.40;1.42;;;8.60;69.80;;;;;;5075034;28;20127;-73
2022/02/02 04:06:31;;;;;;;5.45;1.90;;;8.60;69.70;;;;;;5075107;28;20480;-73
2022/02/02 04:08:57;;;;;;;5.13;1.95;;;8.60;69.70;;;;;;5057064;28;20426;-73
2022/02/02 04:14:47;;;;;;;5.68;2.22;;;8.60;69.90;;;;;;5066646;28;20063;-73
2022/02/02 04:54:48;;;;;;;2.47;1.33;;;8.30;74.20;;;;;;5094195;28;20028;-73
2022/02/02 05:07:51;;;;;;;2.20;0.70;;;7.90;74.80;;;;;;5094039;28;20451;-73
2022/02/02 05:10:31;;;;;;;2.85;0.65;;;7.90;75.10;;;;;;5093670;28;20024;-73
2022/02/02 05:15:59;;;;;;;1.50;0.82;;;7.80;75.50;;;;;;5093905;28;20035;-73
2022/02/02 05:43:07;;;;;;;1.63;0.60;;;7.60;76.60;;;;;;5084708;28;20035;-73
2022/02/02 05:53:04;;;;;;;1.38;0.60;;;7.60;76.90;;;;;;5073149;28;20032;-73
2022/02/02 05:55:38;;;;;;;2.53;1.20;;;7.60;77.10;;;;;;5073010;28;20099;-73
2022/02/02 05:58:07;;;;;;;3.13;1.00;;;7.60;77.20;;;;;;5055392;28;20063;-73
2022/02/02 06:00:36;;;;;;;2.72;0.98;;;7.70;77.40;;;;;;5072713;28;20047;-73
2022/02/02 06:03:11;;;;;;;4.07;1.90;;;7.70;77.50;;;;;;5055086;28;20029;-73
2022/02/02 06:05:38;;;;;;;3.55;1.20;;;7.80;77.60;;;;;;5072875;28;20454;-73
2022/02/02 06:08:12;;;;;;;4.50;1.52;;;7.80;77.70;;;;;;5072766;28;20075;-73
2022/02/02 06:10:42;;;;;;;5.00;2.67;;;7.80;77.70;;;;;;5076786;28;20025;-73
2022/02/02 06:13:08;;;;;;;8.15;3.75;;;7.90;77.80;;;;;;5059177;28;20074;-73
2022/02/02 06:15:35;;;;;;;4.32;2.42;;;7.90;78.00;;;;;;5076816;28;20036;-73
2022/02/02 06:18:03;;;;;;;5.28;2.13;;;7.90;78.00;;;;;;5077133;28;20094;-73
2022/02/02 06:20:29;;;;;;;6.57;2.10;;;8.00;78.10;;;;;;5076901;28;20025;-73
2022/02/02 06:23:20;;;;;;;3.88;2.00;;;8.00;78.10;;;;;;5075147;28;20055;-73
2022/02/02 06:25:48;;;;;;;5.25;1.48;;;8.00;78.00;;;;;;5076901;28;20025;-73
2022/02/02 06:28:24;;;;;;;5.18;1.35;;;8.10;78.00;;;;;;5076522;28;20506;-73
2022/02/02 06:30:59;;;;;;;7.82;2.83;;;8.10;77.80;;;;;;5058863;28;20035;-73
2022/02/02 06:33:35;;;;;;;6.82;2.75;;;8.10;77.80;;;;;;5076445;28;20052;-74
2022/02/02 06:36:06;;;;;;;9.02;4.90;;;8.20;77.90;;;;;;5076498;28;20021;-74
2022/02/02 06:38:32;;;;;;;7.32;3.38;;;8.20;78.00;;;;;;5058265;28;20024;-73
2022/02/02 06:41:00;;;;;;;9.77;4.18;;;8.20;78.10;;;;;;5076022;28;20104;-73
2022/02/02 06:43:27;;;;;;;12.32;6.63;;;8.20;78.10;;;;;;5058341;28;20024;-73
2022/02/02 06:45:54;;;;;;;8.68;5.18;;;8.20;78.20;;;;;;5075924;28;20491;-73
2022/02/02 06:48:20;;;;;;;7.38;3.45;;;8.30;78.20;;;;;;5075880;28;20032;-73
2022/02/02 06:50:59;;;;;;;6.13;1.60;;;8.30;78.10;;;;;;5076126;28;20371;-74
2022/02/02 06:53:54;;;;;;;4.72;1.50;;;8.30;77.90;;;;;;5058395;28;20371;-73
2022/02/02 06:56:47;;;;;;;6.32;2.40;;;8.30;77.90;;;;;;5058333;28;20029;-73
2022/02/02 07:19:16;;;;;;;9.45;2.28;;;8.40;78.00;;;;;;4973963;28;20031;-73
2022/02/02 07:29:29;;;;;;;10.07;3.10;;;8.50;78.30;;;;;;4974617;28;20034;-74
2022/02/02 07:35:07;;;;;;;10.93;2.60;;;8.50;78.30;;;;;;4974204;28;20439;-73
2022/02/02 07:37:38;;;;;;;15.50;2.90;;;8.60;78.10;;;;;;4974465;28;20291;-73
2022/02/02 07:40:09;;;;;;;14.15;3.65;;;8.60;78.40;;;;;;4958042;28;20042;-73
2022/02/02 07:42:43;;;;;;;14.20;3.00;;;8.70;78.50;;;;;;5008947;28;20040;-73
2022/02/02 07:45:11;;;;;;;8.25;2.28;;;8.70;78.40;;;;;;5095706;28;20047;-73
2022/02/02 07:47:47;;;;;;;8.50;2.40;;;8.70;78.40;;;;;;5077502;28;20391;-73
2022/02/02 07:50:14;;;;;;;6.45;1.85;;;8.70;78.20;;;;;;5095208;28;20579;-73
2022/02/02 07:52:46;;;;;;;8.02;2.42;;;8.70;78.50;;;;;;5077334;28;20024;-74
2022/02/02 07:55:13;;;;;;;2.92;1.50;;;8.80;78.70;;;;;;5077408;28;20444;-73
2022/02/02 07:57:43;;;;;;;10.23;3.10;;;8.80;78.80;;;;;;5077213;28;20478;-73
2022/02/02 08:00:17;;;;;;;7.88;2.13;;;8.90;78.80;;;;;;5076999;28;20585;-73
2022/02/02 08:03:04;;;;;;;6.28;1.65;;;8.90;78.90;;;;;;5077049;28;20137;-73
2022/02/02 08:05:34;;;;;;;7.05;2.42;;;8.90;78.90;;;;;;5095532;28;20024;-73
2022/02/02 08:10:39;;;;;;;13.77;3.35;;;9.00;79.00;;;;;;5095199;28;20056;-74
2022/02/02 08:13:15;;;;;;;7.63;2.10;;;9.00;78.80;;;;;;5076919;28;20035;-74
2022/02/02 08:15:41;;;;;;;7.50;2.03;;;9.10;78.60;;;;;;5095047;28;20031;-73
2022/02/02 08:18:07;;;;;;;5.88;1.55;;;9.10;78.50;;;;;;5095034;28;20034;-73
2022/02/02 08:20:33;;;;;;;2.80;0.93;;;9.10;78.40;;;;;;5094857;28;20452;-73
2022/02/02 08:22:59;;;;;;;3.65;1.13;;;9.10;78.40;;;;;;5094759;28;20353;-74
2022/02/02 08:25:27;;;;;;;3.08;1.02;;;9.10;78.30;;;;;;5094876;28;20455;-74
2022/02/02 08:28:00;;;;;;;5.65;1.50;;;9.10;78.20;;;;;;5094880;28;20059;-73
2022/02/02 08:30:29;;;;;;;5.80;0.95;;;9.10;77.90;;;;;;5094740;28;20021;-73
2022/02/02 08:33:00;;;;;;;4.50;1.10;;;9.10;77.90;;;;;;5093214;28;20048;-73
2022/02/02 08:35:45;;;;;;;4.15;1.88;;;9.10;77.80;;;;;;5076483;28;20119;-74
2022/02/02 08:38:58;;;;;;;;;;;9.10;77.50;;;;;;5076862;28;20028;-73
2022/02/02 08:41:05;;;;;;;5.50;1.75;;;9.10;76.80;;;;;;5083045;28;19999;-73
2022/02/02 08:43:39;;;;;;;9.27;1.33;;;9.10;77.50;;;;;;5076434;28;20441;-73
2022/02/02 08:46:12;;;;;;;7.27;1.87;;;9.10;77.70;;;;;;5094774;28;20039;-74
2022/02/02 08:48:41;;;;;;;7.88;2.20;;;9.10;77.70;;;;;;5094476;28;20258;-73
2022/02/02 08:51:12;;;;;;;5.05;1.70;;;9.10;77.80;;;;;;5076189;28;20419;-73
2022/02/02 08:53:57;;;;;;;8.85;2.25;;;9.00;77.80;;;;;;5094154;28;20467;-73
2022/02/02 08:59:42;;;;;;;7.47;1.85;;;9.00;78.00;;;;;;5094230;28;20024;-73
2022/02/02 09:01:38;;;;;;;7.10;1.73;;;9.10;78.20;;;;;;5082684;28;20040;-73
2022/02/02 09:06:49;;;;;;;7.30;1.70;;;9.00;78.00;;;;;;5094196;28;20081;-73
2022/02/02 09:09:21;;;;;;;5.00;1.83;;;9.00;77.90;;;;;;5075490;28;20391;-73
2022/02/02 09:25:16;;;;;;;10.90;2.60;;;9.20;78.70;;;;;;5093709;28;20024;-74
2022/02/02 09:35:41;;;;;;;6.15;2.10;;;9.30;78.50;;;;;;5093551;28;20028;-73
2022/02/02 09:38:07;;;;;;;10.30;2.40;;;9.30;78.60;;;;;;5073845;28;20114;-73
2022/02/02 09:43:04;;;;;;;10.85;3.03;;;9.40;78.80;;;;;;5072903;28;20033;-73
2022/02/02 09:45:30;;;;;;;11.68;2.90;;;9.40;78.60;;;;;;5072037;28;20024;-74
2022/02/02 09:48:00;;;;;;;14.23;3.17;;;9.40;78.40;;;;;;5073276;28;20046;-73
2022/02/02 09:50:33;;;;;;;15.95;3.50;;;9.40;78.00;;;;;;5073151;28;20028;-73
2022/02/02 09:53:02;;;;;;;12.68;3.20;;;9.40;77.90;;;;;;5073332;28;20029;-74
2022/02/02 10:07:47;;;;;;;8.30;2.17;;;9.60;78.30;;;;;;5073192;28;20071;-74
2022/02/02 10:15:53;;;;;;;8.13;1.65;;;9.80;77.10;;;;;;5073045;28;20119;-74
2022/02/02 10:18:25;;;;;;;4.32;1.42;;;9.80;76.90;;;;;;5072904;28;20349;-74
2022/02/02 10:20:52;;;;;;;7.47;2.00;;;9.90;76.60;;;;;;5054944;28;20025;-73
2022/02/02 10:23:32;;;;;;;4.25;1.30;;;9.90;76.30;;;;;;5072946;28;20399;-74
2022/02/02 10:26:17;;;;;;;4.93;1.52;;;9.90;76.20;;;;;;5072759;28;20036;-74
2022/02/02 10:28:44;;;;;;;8.30;1.50;;;10.00;76.40;;;;;;5072807;28;20086;-74
2022/02/02 10:31:11;;;;;;;5.32;1.48;;;10.00;75.50;;;;;;5072801;28;20028;-73
2022/02/02 10:33:37;;;;;;;6.30;1.55;;;10.00;74.90;;;;;;5072737;28;20056;-73
2022/02/02 10:36:20;;;;;;;5.05;1.42;;;10.00;74.80;;;;;;5072494;28;20025;-74
2022/02/02 10:39:07;;;;;;;6.15;1.35;;;10.00;72.90;;;;;;5071872;28;20422;-74
2022/02/02 10:41:53;;;;;;;2.63;0.80;;;9.90;72.00;;;;;;5092644;28;20082;-74
2022/02/02 10:44:37;;;;;;;3.95;1.45;;;9.90;71.50;;;;;;5074239;28;20054;-74
2022/02/02 10:47:17;;;;;;;5.22;1.30;;;9.90;72.20;;;;;;5092651;28;20024;-73
2022/02/02 10:52:34;;;;;;;2.88;1.00;;;10.00;72.60;;;;;;5092584;28;20032;-74
2022/02/02 11:08:46;;;;;;;5.43;1.25;;;10.20;69.10;;;;;;5095885;28;20165;-73
2022/02/02 11:11:12;;;;;;;6.43;1.90;;;10.10;68.00;;;;;;5096005;28;20052;-74
2022/02/02 11:13:42;;;;;;;6.38;1.40;;;10.10;68.20;;;;;;5095832;28;20028;-73
2022/02/02 11:16:13;;;;;;;7.45;1.20;;;10.10;67.70;;;;;;5077731;28;20115;-74
2022/02/02 11:18:45;;;;;;;4.28;1.27;;;10.10;67.20;;;;;;5095847;28;20032;-73
2022/02/02 11:21:15;;;;;;;3.40;1.17;;;10.20;66.90;;;;;;5077338;28;20475;-74
2022/02/02 11:23:45;;;;;;;8.80;1.85;;;10.20;66.40;;;;;;5095585;28;20032;-73
2022/02/02 11:26:13;;;;;;;5.03;1.23;;;10.20;66.60;;;;;;5095518;28;20444;-73
2022/02/02 11:28:39;;;;;;;7.07;1.33;;;10.20;65.60;;;;;;5077347;28;20028;-74
2022/02/02 11:31:18;;;;;;;6.43;1.80;;;10.20;64.40;;;;;;5095384;28;20446;-73
2022/02/02 11:33:52;;;;;;;4.75;1.42;;;10.20;64.20;;;;;;5088325;28;20049;-73
2022/02/02 11:36:25;;;;;;;;;;;10.10;64.00;;;;;;5057528;28;20029;-73
2022/02/02 11:38:54;;;;;;;7.88;1.70;;;10.10;66.00;;;;;;5093028;28;19908;-73
2022/02/02 11:41:49;;;;;;;4.88;1.45;;;10.10;64.50;;;;;;5095034;28;20058;-73
2022/02/02 11:44:22;;;;;;;5.63;1.35;;;10.10;64.70;;;;;;5093400;28;20068;-73
2022/02/02 11:49:54;;;;;;;5.70;1.90;;;10.00;64.00;;;;;;5095325;28;20028;-72
2022/02/02 11:52:40;;;;;;;6.38;1.50;;;9.90;63.40;;;;;;5095580;28;20020;-71
2022/02/02 11:55:26;;;;;;;5.10;1.70;;;9.90;63.40;;;;;;5077154;28;20071;-71
2022/02/02 11:58:15;;;;;;;2.90;1.10;;;9.80;63.80;;;;;;5080830;28;20175;-71
2022/02/02 12:00:54;;;;;;;5.25;1.67;;;9.80;63.70;;;;;;5095455;28;20057;-70
2022/02/02 12:11:29;;;;;;;4.30;1.42;;;9.50;62.70;;;;;;5095544;28;20047;-70
2022/02/02 12:49:10;;;;;;;6.05;1.42;;;9.70;61.10;;;;;;5074272;28;20027;-70
2022/02/02 12:56:55;;;;;;;6.68;1.77;;;9.80;59.70;;;;;;5074076;28;20024;-70
2022/02/02 13:02:16;;;;;;;13.68;2.28;;;9.80;59.70;;;;;;5073799;28;20456;-71
2022/02/02 13:04:45;;;;;;;6.88;1.75;;;9.80;59.70;;;;;;5055953;28;20060;-71
2022/02/02 13:07:16;;;;;;;5.32;1.55;;;9.70;60.30;;;;;;5056040;28;20072;-71
2022/02/02 13:09:47;;;;;;;6.35;1.15;;;9.70;60.30;;;;;;5055911;28;20531;-70
2022/02/02 13:12:35;;;;;;;5.82;1.45;;;9.70;60.50;;;;;;5056261;28;20396;-71
2022/02/02 13:17:53;;;;;;;;;;;9.60;60.70;;;;;;5073496;28;20031;-71
2022/02/02 13:20:48;;;;;;;11.07;1.50;;;9.60;61.80;;;;;;5055796;28;19934;-71
2022/02/02 13:23:30;;;;;;;7.45;1.30;;;9.50;61.00;;;;;;5044814;28;20127;-70
2022/02/02 13:26:02;;;;;;;3.55;0.95;;;9.50;61.00;;;;;;5055635;28;20052;-71
2022/02/02 13:31:28;;;;;;;;;;;9.40;61.30;;;;;;5079299;28;20036;-71
2022/02/02 13:34:49;;;;;;;5.35;1.52;;;9.40;62.00;;;;;;5075090;28;19924;-71
2022/02/02 14:01:48;;;;;;;13.35;1.55;;;8.90;62.40;;;;;;5093584;28;20099;-70
2022/02/02 14:04:28;;;;;;;7.85;1.52;;;8.80;62.50;;;;;;5075115;28;20032;-71
2022/02/02 14:33:36;;;;;;;8.10;1.65;;;8.50;64.00;;;;;;5096964;28;20083;-72
2022/02/02 14:36:05;;;;;;;12.90;1.77;;;8.40;63.90;;;;;;5096764;28;20054;-71
2022/02/02 14:38:39;;;;;;;4.28;1.00;;;8.50;64.00;;;;;;5078764;28;20430;-71
2022/02/02 14:41:15;;;;;;;5.55;1.27;;;8.50;64.00;;;;;;5078836;28;20062;-72
2022/02/02 14:46:18;;;;;;;6.25;1.48;;;8.60;64.00;;;;;;5096901;28;20024;-71
2022/02/02 14:48:55;;;;;;;10.27;1.35;;;8.60;64.10;;;;;;5078468;28;20102;-72
2022/02/02 15:29:56;;;;;;;6.80;1.77;;;9.10;60.40;;;;;;5095896;28;20024;-72
2022/02/02 15:31:52;;;;;;;5.93;1.35;;;9.00;59.90;;;;;;5087424;28;20479;-72
2022/02/02 15:34:26;;;;;;;8.05;1.60;;;9.10;60.40;;;;;;5077306;28;20052;-71
2022/02/02 15:39:24;;;;;;;4.72;1.30;;;9.20;60.10;;;;;;5095806;28;20028;-72
2022/02/02 16:00:28;;;;;;;8.63;2.60;;;9.10;59.30;;;;;;5094992;28;20028;-73
2022/02/02 16:05:30;;;;;;;8.27;2.60;;;9.10;59.40;;;;;;5094817;28;20077;-71
2022/02/02 16:08:02;;;;;;;9.98;1.92;;;9.10;59.40;;;;;;5095084;28;20027;-70
2022/02/02 16:10:41;;;;;;;7.95;1.58;;;9.10;59.00;;;;;;5076624;28;20059;-70
2022/02/02 16:13:15;;;;;;;9.13;1.80;;;9.10;59.30;;;;;;5076365;28;20035;-71
2022/02/02 16:15:41;;;;;;;6.80;1.58;;;9.20;59.70;;;;;;5076492;28;20027;-71
2022/02/02 16:18:34;;;;;;;5.50;1.85;;;9.20;59.70;;;;;;5090685;28;20032;-71
2022/02/02 16:37:35;;;;;;;8.68;2.10;;;9.20;59.30;;;;;;5074261;28;20025;-72
2022/02/02 16:40:04;;;;;;;9.43;1.48;;;9.20;59.40;;;;;;5056576;28;20383;-72
2022/02/02 16:45:18;;;;;;;9.32;2.13;;;9.10;59.50;;;;;;5074143;28;20040;-72
2022/02/02 16:47:44;;;;;;;8.35;2.25;;;9.10;59.60;;;;;;5073704;28;20491;-72
2022/02/02 16:50:19;;;;;;;7.60;1.88;;;9.10;59.60;;;;;;5055800;28;20028;-72
2022/02/02 16:52:49;;;;;;;11.05;2.50;;;9.10;59.60;;;;;;5055332;28;20028;-72
2022/02/02 16:55:45;;;;;;;12.50;2.78;;;9.10;59.60;;;;;;5073559;28;20464;-72
2022/02/02 17:30:31;;;;;;;11.75;2.03;;;9.00;59.10;;;;;;5073034;28;20051;-72
2022/02/02 17:38:25;;;;;;;9.48;1.90;;;9.10;59.00;;;;;;5085341;28;20051;-74
2022/02/02 18:20:44;;;;;;;8.38;2.33;;;8.80;59.40;;;;;;5087844;28;20089;-73
2022/02/02 18:26:04;;;;;;;5.20;1.88;;;8.70;59.60;;;;;;5100085;28;20092;-73
2022/02/02 18:28:57;;;;;;;6.25;1.92;;;8.70;59.70;;;;;;5099158;28;20069;-72
2022/02/02 18:55:10;;;;;;;6.40;1.80;;;8.60;61.00;;;;;;5079185;28;20372;-72
2022/02/02 19:00:44;;;;;;;12.02;2.20;;;8.60;61.10;;;;;;5078788;28;20115;-72
2022/02/02 19:08:14;;;;;;;11.73;2.78;;;8.60;61.40;;;;;;5081128;28;20077;-74
2022/02/02 20:05:32;;;;;;;12.68;3.10;;;8.00;62.20;;;;;;5075040;28;20111;-74
2022/02/02 20:10:34;;;;;;;13.63;2.58;;;7.90;62.30;;;;;;5087128;28;20028;-74
2022/02/02 20:13:00;;;;;;;11.88;3.00;;;7.90;62.40;;;;;;5095179;28;20023;-73
2022/02/02 20:15:26;;;;;;;10.93;2.28;;;7.80;63.10;;;;;;5093753;28;20082;-74
2022/02/02 20:17:55;;;;;;;9.90;2.80;;;7.80;62.40;;;;;;5093469;28;20128;-74
2022/02/02 20:20:23;;;;;;;11.02;2.83;;;7.80;62.60;;;;;;5076100;28;20096;-74
2022/02/02 20:22:50;;;;;;;7.43;2.22;;;7.80;62.80;;;;;;5074503;28;20037;-74
2022/02/02 20:25:18;;;;;;;12.85;2.88;;;7.80;63.00;;;;;;5074556;28;20025;-74
2022/02/02 20:27:54;;;;;;;10.10;2.53;;;7.70;63.00;;;;;;5073367;28;20040;-74
2022/02/02 20:30:20;;;;;;;8.13;3.90;;;7.70;63.20;;;;;;5056493;28;20443;-74
2022/02/02 20:32:46;;;;;;;18.15;5.07;;;7.80;63.40;;;;;;5074255;28;20115;-74
2022/02/02 20:35:12;;;;;;;13.27;2.55;;;7.80;63.40;;;;;;5056373;28;20118;-75
2022/02/02 20:37:37;;;;;;;7.20;1.90;;;7.80;63.40;;;;;;5056343;28;20031;-76
2022/02/02 20:40:07;;;;;;;8.38;2.25;;;7.90;63.60;;;;;;5056121;28;20033;-74
2022/02/02 21:04:43;;;;;;;16.08;3.58;;;8.20;63.80;;;;;;5073959;28;20032;-75
2022/02/02 21:10:01;;;;;;;;;;;8.30;63.20;;;;;;5077304;28;20039;-76
2022/02/02 21:15:33;;;;;;;8.63;2.53;;;8.40;63.00;;;;;;5051211;28;20078;-75
2022/02/02 21:18:30;;;;;;;7.05;2.25;;;8.40;63.00;;;;;;5065760;28;20498;-75
2022/02/02 21:23:26;;;;;;;5.75;2.55;;;8.40;63.40;;;;;;5073480;28;20123;-75
2022/02/02 21:28:30;;;;;;;6.47;2.33;;;8.50;63.10;;;;;;5073476;28;20472;-74
2022/02/02 21:30:56;;;;;;;5.15;1.70;;;8.50;63.30;;;;;;5055285;28;20115;-75
2022/02/02 21:33:22;;;;;;;8.88;2.38;;;8.60;63.60;;;;;;5051763;28;20052;-75
2022/02/02 21:35:50;;;;;;;6.95;2.00;;;8.60;63.80;;;;;;5073098;28;20036;-75
2022/02/02 21:38:22;;;;;;;8.88;2.20;;;8.60;63.50;;;;;;5055027;28;20162;-76
2022/02/02 21:40:53;;;;;;;5.75;1.70;;;8.60;63.50;;;;;;5073041;28;20392;-75
2022/02/02 21:43:19;;;;;;;8.55;2.40;;;8.60;63.50;;;;;;5055232;28;20071;-75
2022/02/02 21:45:45;;;;;;;5.25;1.88;;;8.70;63.50;;;;;;5062322;28;20073;-75
2022/02/02 21:48:12;;;;;;;4.55;1.88;;;8.70;63.70;;;;;;5075446;28;20025;-75
2022/02/02 21:50:48;;;;;;;4.75;1.83;;;8.70;63.60;;;;;;5075396;28;20020;-75
2022/02/02 21:53:14;;;;;;;4.32;2.13;;;8.70;63.60;;;;;;5075319;28;20035;-75
2022/02/02 21:55:40;;;;;;;8.95;2.00;;;8.70;63.70;;;;;;5075113;28;20102;-75
2022/02/02 21:58:07;;;;;;;7.80;1.90;;;8.70;63.40;;;;;;5092113;28;20459;-75
2022/02/02 22:00:33;;;;;;;8.40;2.35;;;8.70;62.90;;;;;;5092110;28;20069;-75
2022/02/02 22:02:59;;;;;;;4.45;1.25;;;8.80;62.90;;;;;;5092042;28;20093;-76
2022/02/02 22:05:25;;;;;;;9.48;1.70;;;8.80;62.80;;;;;;5092013;28;20024;-76
2022/02/02 22:07:50;;;;;;;10.15;1.95;;;8.80;62.80;;;;;;5065044;28;20040;-76
2022/02/02 22:10:18;;;;;;;4.90;1.48;;;8.80;62.80;;;;;;5051694;28;20025;-76
2022/02/02 22:12:44;;;;;;;6.55;2.35;;;8.80;62.50;;;;;;5071454;28;20101;-77
2022/02/02 22:15:15;;;;;;;3.70;1.63;;;8.80;62.30;;;;;;5054979;28;20024;-76
2022/02/02 22:17:41;;;;;;;7.60;2.33;;;8.80;62.10;;;;;;5056523;28;20028;-77
2022/02/02 22:20:10;;;;;;;8.38;1.95;;;8.80;62.40;;;;;;5074915;28;20455;-75
2022/02/02 22:22:39;;;;;;;8.35;2.55;;;8.90;62.60;;;;;;5074936;28;20451;-75
2022/02/02 22:25:07;;;;;;;10.57;2.00;;;8.90;62.30;;;;;;5073335;28;20028;-76
2022/02/02 22:27:32;;;;;;;8.20;1.83;;;8.90;62.10;;;;;;5074939;28;20387;-77
2022/02/02 22:29:58;;;;;;;11.55;2.60;;;8.90;61.90;;;;;;5074972;28;20024;-76
2022/02/02 22:32:24;;;;;;;8.95;1.90;;;8.90;62.00;;;;;;5074650;28;20542;-76
2022/02/02 22:34:50;;;;;;;14.25;2.78;;;8.90;61.70;;;;;;5092637;28;20051;-76
2022/02/02 22:37:17;;;;;;;5.18;1.70;;;8.90;61.50;;;;;;5091657;28;20025;-76
2022/02/02 22:39:43;;;;;;;4.28;1.90;;;8.80;61.50;;;;;;5092710;28;20025;-77
2022/02/02 22:42:12;;;;;;;7.28;2.00;;;8.90;61.60;;;;;;5091669;28;20036;-77
2022/02/02 22:44:38;;;;;;;10.38;2.60;;;8.80;61.60;;;;;;5074766;28;20422;-77
2022/02/02 22:47:07;;;;;;;9.10;2.35;;;8.80;61.50;;;;;;5091564;28;20031;-77
2022/02/02 22:49:35;;;;;;;7.68;2.15;;;8.80;61.60;;;;;;5089152;28;20115;-77
2022/02/02 22:52:01;;;;;;;9.80;2.60;;;8.80;61.60;;;;;;5076198;28;20066;-78
2022/02/02 22:54:26;;;;;;;12.23;1.83;;;8.70;61.40;;;;;;5096337;28;20048;-79
2022/02/02 22:56:52;;;;;;;9.60;2.28;;;8.60;61.40;;;;;;5078306;28;20463;-78
2022/02/02 22:59:18;;;;;;;9.15;2.67;;;8.60;61.70;;;;;;5065128;28;20025;-77
2022/02/02 23:01:51;;;;;;;7.78;1.90;;;8.60;62.00;;;;;;5058263;28;20029;-77
2022/02/02 23:04:16;;;;;;;7.40;1.98;;;8.60;62.10;;;;;;5058374;28;20047;-77
2022/02/02 23:06:42;;;;;;;9.38;2.35;;;8.50;61.80;;;;;;5058226;28;20029;-78
2022/02/02 23:09:09;;;;;;;4.72;1.85;;;8.40;61.80;;;;;;5076112;28;20039;-77
2022/02/02 23:11:35;;;;;;;4.15;1.55;;;8.40;61.70;;;;;;5058520;28;20074;-77
2022/02/02 23:14:01;;;;;;;7.55;1.88;;;8.30;61.70;;;;;;5058162;28;20028;-77
2022/02/02 23:16:33;;;;;;;6.68;1.80;;;8.30;61.90;;;;;;5071542;28;20460;-79
2022/02/02 23:18:59;;;;;;;4.47;1.63;;;8.20;61.90;;;;;;5058066;28;20029;-77
2022/02/02 23:21:25;;;;;;;4.25;1.75;;;8.10;62.00;;;;;;5058507;28;20028;-79
2022/02/02 23:24:02;;;;;;;4.75;1.50;;;8.10;62.00;;;;;;5089083;28;20077;-78
2022/02/02 23:26:28;;;;;;;10.45;2.05;;;8.10;62.40;;;;;;5075382;28;20052;-78
2022/02/02 23:28:57;;;;;;;6.40;1.83;;;8.10;62.70;;;;;;5088937;28;20028;-77
2022/02/02 23:31:25;;;;;;;3.80;1.50;;;8.10;62.70;;;;;;5095952;28;20102;-78
2022/02/02 23:33:51;;;;;;;6.03;1.60;;;8.10;62.90;;;;;;5095595;28;20052;-78
2022/02/02 23:36:20;;;;;;;9.57;2.03;;;8.10;63.10;;;;;;5094024;28;20111;-77
2022/02/02 23:38:47;;;;;;;5.97;1.60;;;8.10;63.00;;;;;;5077671;28;20020;-77
2022/02/02 23:43:57;;;;;;;9.88;2.22;;;8.20;62.50;;;;;;5075377;28;20048;-77
2022/02/02 23:46:25;;;;;;;6.20;1.70;;;8.20;62.20;;;;;;5057504;28;20475;-78
2022/02/02 23:48:59;;;;;;;7.38;2.00;;;8.20;62.20;;;;;;5057331;28;20082;-78
2022/02/02 23:51:30;;;;;;;4.80;1.65;;;8.10;62.30;;;;;;5063969;28;20054;-79
2022/02/02 23:53:58;;;;;;;8.88;2.33;;;8.20;62.30;;;;;;5063138;28;20033;-77
2022/02/02 23:56:47;;;;;;;5.88;1.33;;;8.10;62.10;;;;;;5075038;28;20555;-77
